sensor_id;sensor_type;location;lat;lon;timestamp;pressure;altitude;pressure_sealevel;temperature;humidity
53916;BME280;39827;49.652;18.770;2022-12-11T00:01:10;95076.78;;;-0.74;100.00
53916;BME280;39827;49.652;18.770;2022-12-11T00:03:36;95069.28;;;-0.83;100.00
53916;BME280;39827;49.652;18.770;2022-12-11T00:06:09;95069.00;;;-0.74;100.00
53916;BME280;39827;49.652;18.770;2022-12-11T00:08:35;95058.50;;;-0.68;100.00
53916;BME280;39827;49.652;18.770;2022-12-11T00:11:00;95055.91;;;-0.68;100.00
53916;BME280;39827;49.652;18.770;2022-12-11T00:13:26;95048.53;;;-0.71;100.00
53916;BME280;39827;49.652;18.770;2022-12-11T00:15:52;95035.66;;;-0.66;100.00
53916;BME280;39827;49.652;18.770;2022-12-11T00:18:17;95049.00;;;-0.74;100.00
53916;BME280;39827;49.652;18.770;2022-12-11T00:20:42;95060.38;;;-0.75;100.00
53916;BME280;39827;49.652;18.770;2022-12-11T00:23:08;95048.59;;;-0.59;100.00
53916;BME280;39827;49.652;18.770;2022-12-11T00:25:34;95053.53;;;-0.69;100.00
53916;BME280;39827;49.652;18.770;2022-12-11T00:28:00;95048.50;;;-0.83;100.00
53916;BME280;39827;49.652;18.770;2022-12-11T00:30:25;95047.69;;;-0.83;100.00
53916;BME280;39827;49.652;18.770;2022-12-11T00:32:51;95054.53;;;-0.70;100.00
53916;BME280;39827;49.652;18.770;2022-12-11T00:35:16;95051.69;;;-0.81;100.00
53916;BME280;39827;49.652;18.770;2022-12-11T00:37:41;95052.03;;;-0.77;100.00
53916;BME280;39827;49.652;18.770;2022-12-11T00:40:07;95045.16;;;-0.71;100.00
53916;BME280;39827;49.652;18.770;2022-12-11T00:42:32;95049.78;;;-0.73;100.00
53916;BME280;39827;49.652;18.770;2022-12-11T00:44:58;95055.56;;;-0.71;100.00
53916;BME280;39827;49.652;18.770;2022-12-11T00:47:23;95050.69;;;-0.80;100.00
53916;BME280;39827;49.652;18.770;2022-12-11T00:49:48;95062.44;;;-0.77;100.00
53916;BME280;39827;49.652;18.770;2022-12-11T00:52:14;95048.50;;;-0.83;100.00
53916;BME280;39827;49.652;18.770;2022-12-11T00:54:41;95060.13;;;-0.85;100.00
53916;BME280;39827;49.652;18.770;2022-12-11T00:57:07;95047.44;;;-0.94;100.00
53916;BME280;39827;49.652;18.770;2022-12-11T00:59:32;95061.59;;;-0.89;100.00
53916;BME280;39827;49.652;18.770;2022-12-11T01:01:57;95052.53;;;-0.99;100.00
53916;BME280;39827;49.652;18.770;2022-12-11T01:04:22;95054.69;;;-0.96;100.00
53916;BME280;39827;49.652;18.770;2022-12-11T01:06:48;95048.03;;;-0.92;100.00
53916;BME280;39827;49.652;18.770;2022-12-11T01:09:13;95045.44;;;-0.92;100.00
53916;BME280;39827;49.652;18.770;2022-12-11T01:11:57;95045.50;;;-0.98;100.00
53916;BME280;39827;49.652;18.770;2022-12-11T01:14:23;95028.34;;;-0.99;100.00
53916;BME280;39827;49.652;18.770;2022-12-11T01:16:48;95031.50;;;-0.97;100.00
53916;BME280;39827;49.652;18.770;2022-12-11T01:19:13;95039.88;;;-0.95;100.00
53916;BME280;39827;49.652;18.770;2022-12-11T01:21:39;95027.69;;;-0.95;100.00
53916;BME280;39827;49.652;18.770;2022-12-11T01:24:05;95036.00;;;-1.05;100.00
53916;BME280;39827;49.652;18.770;2022-12-11T01:26:30;95025.69;;;-1.11;100.00
53916;BME280;39827;49.652;18.770;2022-12-11T01:28:56;95025.03;;;-1.07;100.00
53916;BME280;39827;49.652;18.770;2022-12-11T01:31:21;95026.78;;;-1.19;100.00
53916;BME280;39827;49.652;18.770;2022-12-11T01:33:47;95017.81;;;-1.05;100.00
53916;BME280;39827;49.652;18.770;2022-12-11T01:36:16;95019.84;;;-1.07;100.00
53916;BME280;39827;49.652;18.770;2022-12-11T01:38:42;95024.25;;;-1.07;100.00
53916;BME280;39827;49.652;18.770;2022-12-11T01:41:08;95019.03;;;-1.07;100.00
53916;BME280;39827;49.652;18.770;2022-12-11T01:43:35;95019.69;;;-1.12;100.00
53916;BME280;39827;49.652;18.770;2022-12-11T01:46:18;95020.75;;;-1.01;100.00
53916;BME280;39827;49.652;18.770;2022-12-11T01:48:44;95023.50;;;-0.96;100.00
53916;BME280;39827;49.652;18.770;2022-12-11T01:51:09;95026.44;;;-0.92;100.00
53916;BME280;39827;49.652;18.770;2022-12-11T01:53:38;95023.94;;;-0.99;100.00
53916;BME280;39827;49.652;18.770;2022-12-11T01:56:05;95025.19;;;-1.01;100.00
53916;BME280;39827;49.652;18.770;2022-12-11T01:58:35;95028.00;;;-1.03;100.00
53916;BME280;39827;49.652;18.770;2022-12-11T02:01:03;95015.38;;;-1.18;100.00
53916;BME280;39827;49.652;18.770;2022-12-11T02:03:29;95027.34;;;-1.17;100.00
53916;BME280;39827;49.652;18.770;2022-12-11T02:05:58;95016.19;;;-1.17;100.00
53916;BME280;39827;49.652;18.770;2022-12-11T02:08:23;95021.31;;;-1.11;100.00
53916;BME280;39827;49.652;18.770;2022-12-11T02:11:25;95027.34;;;-1.17;100.00
53916;BME280;39827;49.652;18.770;2022-12-11T02:14:05;95020.31;;;-0.98;100.00
53916;BME280;39827;49.652;18.770;2022-12-11T02:17:16;95014.28;;;-1.10;100.00
53916;BME280;39827;49.652;18.770;2022-12-11T02:22:11;95020.59;;;-1.18;100.00
53916;BME280;39827;49.652;18.770;2022-12-11T02:30:05;94998.06;;;-1.06;100.00
53916;BME280;39827;49.652;18.770;2022-12-11T02:32:36;94999.81;;;-1.18;100.00
53916;BME280;39827;49.652;18.770;2022-12-11T02:37:35;95011.91;;;-1.12;100.00
53916;BME280;39827;49.652;18.770;2022-12-11T02:40:05;94993.47;;;-1.22;100.00
53916;BME280;39827;49.652;18.770;2022-12-11T02:42:33;95006.19;;;-1.33;100.00
53916;BME280;39827;49.652;18.770;2022-12-11T02:45:00;94999.97;;;-1.32;100.00
53916;BME280;39827;49.652;18.770;2022-12-11T02:47:29;94983.81;;;-1.34;100.00
53916;BME280;39827;49.652;18.770;2022-12-11T02:49:58;94986.78;;;-1.30;100.00
53916;BME280;39827;49.652;18.770;2022-12-11T02:52:26;94988.00;;;-1.33;100.00
53916;BME280;39827;49.652;18.770;2022-12-11T02:54:55;94995.63;;;-1.19;100.00
53916;BME280;39827;49.652;18.770;2022-12-11T02:57:24;95002.34;;;-1.30;100.00
53916;BME280;39827;49.652;18.770;2022-12-11T02:59:51;94999.75;;;-1.30;100.00
53916;BME280;39827;49.652;18.770;2022-12-11T03:02:17;94998.97;;;-1.31;100.00
53916;BME280;39827;49.652;18.770;2022-12-11T03:04:43;95004.66;;;-1.22;100.00
53916;BME280;39827;49.652;18.770;2022-12-11T03:07:14;95010.63;;;-1.21;100.00
53916;BME280;39827;49.652;18.770;2022-12-11T03:09:43;94998.16;;;-1.31;100.00
53916;BME280;39827;49.652;18.770;2022-12-11T03:12:11;95005.44;;;-1.21;100.00
53916;BME280;39827;49.652;18.770;2022-12-11T03:14:39;95003.84;;;-1.22;100.00
53916;BME280;39827;49.652;18.770;2022-12-11T03:17:12;95006.03;;;-1.38;100.00
53916;BME280;39827;49.652;18.770;2022-12-11T03:19:41;94988.88;;;-1.39;100.00
53916;BME280;39827;49.652;18.770;2022-12-11T03:22:21;94998.47;;;-1.39;100.00
53916;BME280;39827;49.652;18.770;2022-12-11T03:25:00;94987.41;;;-1.35;100.00
53916;BME280;39827;49.652;18.770;2022-12-11T03:27:39;94983.59;;;-1.32;100.00
53916;BME280;39827;49.652;18.770;2022-12-11T03:30:10;94990.53;;;-1.45;100.00
53916;BME280;39827;49.652;18.770;2022-12-11T03:32:43;94995.81;;;-1.33;100.00
53916;BME280;39827;49.652;18.770;2022-12-11T03:35:39;94994.69;;;-1.25;100.00
53916;BME280;39827;49.652;18.770;2022-12-11T03:38:09;94992.63;;;-1.35;100.00
53916;BME280;39827;49.652;18.770;2022-12-11T03:40:38;94999.88;;;-1.25;100.00
53916;BME280;39827;49.652;18.770;2022-12-11T03:43:06;94998.09;;;-1.24;100.00
53916;BME280;39827;49.652;18.770;2022-12-11T03:45:32;94995.41;;;-1.17;100.00
53916;BME280;39827;49.652;18.770;2022-12-11T03:48:00;94986.38;;;-1.15;100.00
53916;BME280;39827;49.652;18.770;2022-12-11T03:50:29;94992.09;;;-1.25;100.00
53916;BME280;39827;49.652;18.770;2022-12-11T03:52:55;94991.16;;;-1.31;100.00
53916;BME280;39827;49.652;18.770;2022-12-11T03:55:22;94988.00;;;-1.33;100.00
53916;BME280;39827;49.652;18.770;2022-12-11T03:57:49;94984.19;;;-1.30;100.00
53916;BME280;39827;49.652;18.770;2022-12-11T04:00:18;94994.66;;;-1.37;100.00
53916;BME280;39827;49.652;18.770;2022-12-11T04:02:44;94982.81;;;-1.33;100.00
53916;BME280;39827;49.652;18.770;2022-12-11T04:05:29;94990.53;;;-1.45;100.00
53916;BME280;39827;49.652;18.770;2022-12-11T04:07:55;94994.09;;;-1.27;100.00
53916;BME280;39827;49.652;18.770;2022-12-11T04:10:20;94988.38;;;-1.48;100.00
53916;BME280;39827;49.652;18.770;2022-12-11T04:12:45;94976.59;;;-1.32;100.00
53916;BME280;39827;49.652;18.770;2022-12-11T04:15:11;94975.28;;;-1.22;100.00
53916;BME280;39827;49.652;18.770;2022-12-11T04:17:36;94981.13;;;-1.27;100.00
53916;BME280;39827;49.652;18.770;2022-12-11T04:20:20;94967.50;;;-1.22;100.00
53916;BME280;39827;49.652;18.770;2022-12-11T04:23:05;94975.19;;;-1.15;100.00
53916;BME280;39827;49.652;18.770;2022-12-11T04:25:49;94969.66;;;-1.19;100.00
53916;BME280;39827;49.652;18.770;2022-12-11T04:28:15;94967.84;;;-1.19;100.00
53916;BME280;39827;49.652;18.770;2022-12-11T04:30:40;94971.19;;;-1.30;100.00
53916;BME280;39827;49.652;18.770;2022-12-11T04:33:11;94972.13;;;-1.24;100.00
53916;BME280;39827;49.652;18.770;2022-12-11T04:35:36;94968.72;;;-1.25;100.00
53916;BME280;39827;49.652;18.770;2022-12-11T04:38:02;94971.63;;;-1.33;100.00
53916;BME280;39827;49.652;18.770;2022-12-11T04:40:27;94966.44;;;-1.33;100.00
53916;BME280;39827;49.652;18.770;2022-12-11T04:42:52;94967.94;;;-1.25;100.00
53916;BME280;39827;49.652;18.770;2022-12-11T04:45:18;94967.06;;;-1.19;100.00
53916;BME280;39827;49.652;18.770;2022-12-11T04:47:43;94965.13;;;-1.24;100.00
53916;BME280;39827;49.652;18.770;2022-12-11T04:50:10;94959.00;;;-1.29;100.00
53916;BME280;39827;49.652;18.770;2022-12-11T04:52:36;94961.75;;;-1.24;100.00
53916;BME280;39827;49.652;18.770;2022-12-11T04:55:03;94961.97;;;-1.26;100.00
53916;BME280;39827;49.652;18.770;2022-12-11T04:57:29;94958.25;;;-1.18;100.00
53916;BME280;39827;49.652;18.770;2022-12-11T04:59:54;94950.97;;;-1.28;100.00
53916;BME280;39827;49.652;18.770;2022-12-11T05:02:19;94956.22;;;-1.16;100.00
53916;BME280;39827;49.652;18.770;2022-12-11T05:04:45;94962.59;;;-1.31;100.00
53916;BME280;39827;49.652;18.770;2022-12-11T05:07:10;94948.91;;;-1.38;100.00
53916;BME280;39827;49.652;18.770;2022-12-11T05:09:35;94950.44;;;-1.30;100.00
53916;BME280;39827;49.652;18.770;2022-12-11T05:12:01;94944.22;;;-1.29;100.00
53916;BME280;39827;49.652;18.770;2022-12-11T05:14:27;94949.44;;;-1.48;100.00
53916;BME280;39827;49.652;18.770;2022-12-11T05:16:56;94956.84;;;-1.33;100.00
53916;BME280;39827;49.652;18.770;2022-12-11T05:19:21;94956.31;;;-1.23;100.00
53916;BME280;39827;49.652;18.770;2022-12-11T05:21:46;94960.72;;;-1.23;100.00
53916;BME280;39827;49.652;18.770;2022-12-11T05:24:12;94966.78;;;-1.29;100.00
53916;BME280;39827;49.652;18.770;2022-12-11T05:26:37;94965.16;;;-1.12;100.00
53916;BME280;39827;49.652;18.770;2022-12-11T05:29:02;94964.09;;;-1.23;100.00
53916;BME280;39827;49.652;18.770;2022-12-11T05:31:28;94974.47;;;-1.23;100.00
53916;BME280;39827;49.652;18.770;2022-12-11T05:33:53;94960.25;;;-1.20;100.00
53916;BME280;39827;49.652;18.770;2022-12-11T05:36:30;94968.47;;;-1.05;100.00
53916;BME280;39827;49.652;18.770;2022-12-11T05:38:57;94959.31;;;-1.07;100.00
53916;BME280;39827;49.652;18.770;2022-12-11T05:41:24;94967.00;;;-1.00;100.00
53916;BME280;39827;49.652;18.770;2022-12-11T05:43:50;94972.72;;;-1.10;100.00
53916;BME280;39827;49.652;18.770;2022-12-11T05:46:18;94961.78;;;-1.12;100.00
53916;BME280;39827;49.652;18.770;2022-12-11T05:48:47;94972.72;;;-1.10;100.00
53916;BME280;39827;49.652;18.770;2022-12-11T05:51:13;94969.25;;;-1.04;100.00
53916;BME280;39827;49.652;18.770;2022-12-11T05:53:40;94972.16;;;-1.12;100.00
53916;BME280;39827;49.652;18.770;2022-12-11T05:56:10;94971.53;;;-1.26;100.00
53916;BME280;39827;49.652;18.770;2022-12-11T05:58:35;94979.34;;;-1.26;100.00
53916;BME280;39827;49.652;18.770;2022-12-11T06:01:01;94980.81;;;-1.19;100.00
53916;BME280;39827;49.652;18.770;2022-12-11T06:03:30;94983.38;;;-1.31;100.00
53916;BME280;39827;49.652;18.770;2022-12-11T06:05:55;94989.06;;;-1.22;100.00
53916;BME280;39827;49.652;18.770;2022-12-11T06:08:21;94985.97;;;-1.31;100.00
53916;BME280;39827;49.652;18.770;2022-12-11T06:10:48;94978.91;;;-1.42;100.00
53916;BME280;39827;49.652;18.770;2022-12-11T06:13:14;94986.56;;;-1.28;100.00
53916;BME280;39827;49.652;18.770;2022-12-11T06:15:39;94990.06;;;-1.23;100.00
53916;BME280;39827;49.652;18.770;2022-12-11T06:18:05;94991.28;;;-1.25;100.00
53916;BME280;39827;49.652;18.770;2022-12-11T06:20:31;94991.16;;;-1.31;100.00
53916;BME280;39827;49.652;18.770;2022-12-11T06:22:58;94989.16;;;-1.28;100.00
53916;BME280;39827;49.652;18.770;2022-12-11T06:25:24;94996.94;;;-1.28;100.00
53916;BME280;39827;49.652;18.770;2022-12-11T06:27:49;94991.84;;;-1.35;100.00
53916;BME280;39827;49.652;18.770;2022-12-11T06:30:15;95002.94;;;-1.47;100.00
53916;BME280;39827;49.652;18.770;2022-12-11T06:32:40;95008.09;;;-1.59;100.00
53916;BME280;39827;49.652;18.770;2022-12-11T06:35:06;95009.06;;;-1.41;100.00
53916;BME280;39827;49.652;18.770;2022-12-11T06:37:33;95008.94;;;-1.46;100.00
53916;BME280;39827;49.652;18.770;2022-12-11T06:39:59;94986.84;;;-1.55;100.00
53916;BME280;39827;49.652;18.770;2022-12-11T06:42:24;95005.13;;;-1.43;100.00
53916;BME280;39827;49.652;18.770;2022-12-11T06:44:49;95003.31;;;-1.62;100.00
53916;BME280;39827;49.652;18.770;2022-12-11T06:47:14;95008.44;;;-1.55;100.00
53916;BME280;39827;49.652;18.770;2022-12-11T06:49:40;95025.22;;;-1.39;100.00
53916;BME280;39827;49.652;18.770;2022-12-11T06:52:05;95016.06;;;-1.41;100.00
53916;BME280;39827;49.652;18.770;2022-12-11T06:54:31;95009.06;;;-1.41;100.00
53916;BME280;39827;49.652;18.770;2022-12-11T06:56:56;95009.28;;;-1.42;100.00
53916;BME280;39827;49.652;18.770;2022-12-11T06:59:21;95017.22;;;-1.37;100.00
53916;BME280;39827;49.652;18.770;2022-12-11T07:01:46;95001.41;;;-1.36;100.00
53916;BME280;39827;49.652;18.770;2022-12-11T07:04:12;95010.00;;;-1.35;100.00
53916;BME280;39827;49.652;18.770;2022-12-11T07:06:37;95018.28;;;-1.26;100.00
53916;BME280;39827;49.652;18.770;2022-12-11T07:09:04;95020.66;;;-1.25;100.00
53916;BME280;39827;49.652;18.770;2022-12-11T07:11:29;95035.81;;;-1.22;100.00
53916;BME280;39827;49.652;18.770;2022-12-11T07:13:57;95030.31;;;-1.13;100.00
53916;BME280;39827;49.652;18.770;2022-12-11T07:16:23;95043.53;;;-1.34;100.00
53916;BME280;39827;49.652;18.770;2022-12-11T07:18:49;95041.56;;;-1.20;100.00
53916;BME280;39827;49.652;18.770;2022-12-11T07:21:15;95044.91;;;-1.50;100.00
53916;BME280;39827;49.652;18.770;2022-12-11T07:23:41;95038.78;;;-1.55;100.00
53916;BME280;39827;49.652;18.770;2022-12-11T07:26:12;95055.72;;;-1.34;100.00
53916;BME280;39827;49.652;18.770;2022-12-11T07:28:38;95050.41;;;-1.39;100.00
53916;BME280;39827;49.652;18.770;2022-12-11T07:31:08;95044.97;;;-1.38;100.00
53916;BME280;39827;49.652;18.770;2022-12-11T07:33:34;95037.41;;;-1.39;100.00
53916;BME280;39827;49.652;18.770;2022-12-11T07:36:04;95043.53;;;-1.34;100.00
53916;BME280;39827;49.652;18.770;2022-12-11T07:38:30;95032.72;;;-1.49;100.00
53916;BME280;39827;49.652;18.770;2022-12-11T07:40:58;95059.34;;;-1.35;100.00
53916;BME280;39827;49.652;18.770;2022-12-11T07:43:24;95058.13;;;-1.33;100.00
53916;BME280;39827;49.652;18.770;2022-12-11T07:45:49;95051.19;;;-1.39;100.00
53916;BME280;39827;49.652;18.770;2022-12-11T07:48:14;95054.72;;;-1.33;100.00
53916;BME280;39827;49.652;18.770;2022-12-11T07:50:40;95048.28;;;-1.31;100.00
53916;BME280;39827;49.652;18.770;2022-12-11T07:53:05;95051.97;;;-1.20;100.00
53916;BME280;39827;49.652;18.770;2022-12-11T07:55:31;95038.78;;;-1.37;100.00
53916;BME280;39827;49.652;18.770;2022-12-11T07:57:57;95052.03;;;-1.26;100.00
53916;BME280;39827;49.652;18.770;2022-12-11T08:00:22;95047.88;;;-1.27;100.00
53916;BME280;39827;49.652;18.770;2022-12-11T08:02:47;95055.00;;;-1.23;100.00
53916;BME280;39827;49.652;18.770;2022-12-11T08:05:12;95052.00;;;-1.08;100.00
53916;BME280;39827;49.652;18.770;2022-12-11T08:07:38;95056.13;;;-1.19;100.00
53916;BME280;39827;49.652;18.770;2022-12-11T08:10:04;95055.94;;;-1.17;100.00
53916;BME280;39827;49.652;18.770;2022-12-11T08:12:29;95067.69;;;-1.14;100.00
53916;BME280;39827;49.652;18.770;2022-12-11T08:14:55;95060.22;;;-0.92;100.00
53916;BME280;39827;49.652;18.770;2022-12-11T08:17:20;95066.16;;;-1.03;100.00
53916;BME280;39827;49.652;18.770;2022-12-11T08:19:45;95071.25;;;-0.97;100.00
53916;BME280;39827;49.652;18.770;2022-12-11T08:22:11;95070.91;;;-1.00;100.00
53916;BME280;39827;49.652;18.770;2022-12-11T08:24:37;95063.84;;;-1.12;100.00
53916;BME280;39827;49.652;18.770;2022-12-11T08:27:02;95074.06;;;-0.98;100.00
53916;BME280;39827;49.652;18.770;2022-12-11T08:29:28;95079.38;;;-0.74;100.00
53916;BME280;39827;49.652;18.770;2022-12-11T08:31:53;95075.25;;;-0.63;100.00
53916;BME280;39827;49.652;18.770;2022-12-11T08:34:18;95063.16;;;-0.88;100.00
53916;BME280;39827;49.652;18.770;2022-12-11T08:36:44;95068.47;;;-0.64;100.00
53916;BME280;39827;49.652;18.770;2022-12-11T08:39:09;95068.84;;;-0.49;100.00
53916;BME280;39827;49.652;18.770;2022-12-11T08:41:35;95070.78;;;-0.44;100.00
53916;BME280;39827;49.652;18.770;2022-12-11T08:44:00;95082.78;;;-0.31;100.00
53916;BME280;39827;49.652;18.770;2022-12-11T08:46:28;95069.69;;;-0.24;100.00
53916;BME280;39827;49.652;18.770;2022-12-11T08:48:54;95073.19;;;-0.31;100.00
53916;BME280;39827;49.652;18.770;2022-12-11T08:51:22;95078.38;;;-0.31;100.00
53916;BME280;39827;49.652;18.770;2022-12-11T08:53:48;95070.09;;;-0.40;100.00
53916;BME280;39827;49.652;18.770;2022-12-11T08:56:18;95067.75;;;-0.41;100.00
53916;BME280;39827;49.652;18.770;2022-12-11T08:58:45;95075.84;;;-0.49;100.00
53916;BME280;39827;49.652;18.770;2022-12-11T09:01:12;95074.97;;;-0.43;100.00
53916;BME280;39827;49.652;18.770;2022-12-11T09:03:38;95080.19;;;-0.31;100.00
53916;BME280;39827;49.652;18.770;2022-12-11T09:06:10;95088.56;;;-0.29;100.00
53916;BME280;39827;49.652;18.770;2022-12-11T09:08:36;95095.34;;;-0.28;100.00
53916;BME280;39827;49.652;18.770;2022-12-11T09:11:04;95088.69;;;-0.67;100.00
53916;BME280;39827;49.652;18.770;2022-12-11T09:13:31;95091.25;;;-0.48;100.00
53916;BME280;39827;49.652;18.770;2022-12-11T09:15:57;95102.25;;;-0.64;100.00
53916;BME280;39827;49.652;18.770;2022-12-11T09:18:22;95108.81;;;-0.62;100.00
53916;BME280;39827;49.652;18.770;2022-12-11T09:20:56;95101.41;;;-0.46;100.00
53916;BME280;39827;49.652;18.770;2022-12-11T09:23:22;95095.84;;;-0.50;100.00
53916;BME280;39827;49.652;18.770;2022-12-11T09:25:47;95092.59;;;-0.45;100.00
53916;BME280;39827;49.652;18.770;2022-12-11T09:28:12;95088.41;;;-0.46;100.00
53916;BME280;39827;49.652;18.770;2022-12-11T09:30:38;95077.63;;;-0.62;100.00
53916;BME280;39827;49.652;18.770;2022-12-11T09:33:03;95078.16;;;-0.72;100.00
53916;BME280;39827;49.652;18.770;2022-12-11T09:35:28;95075.94;;;-0.87;100.00
53916;BME280;39827;49.652;18.770;2022-12-11T09:37:54;95070.50;;;-0.97;100.00
53916;BME280;39827;49.652;18.770;2022-12-11T09:40:19;95087.91;;;-0.86;100.00
53916;BME280;39827;49.652;18.770;2022-12-11T09:43:16;95080.00;;;-0.91;100.00
53916;BME280;39827;49.652;18.770;2022-12-11T09:45:44;95079.44;;;-1.12;100.00
53916;BME280;39827;49.652;18.770;2022-12-11T09:48:10;95088.28;;;-0.82;100.00
53916;BME280;39827;49.652;18.770;2022-12-11T09:50:38;95080.63;;;-0.77;100.00
53916;BME280;39827;49.652;18.770;2022-12-11T09:53:14;95087.41;;;-0.76;100.00
53916;BME280;39827;49.652;18.770;2022-12-11T09:55:50;95081.09;;;-0.68;100.00
53916;BME280;39827;49.652;18.770;2022-12-11T09:58:24;95080.00;;;-0.60;100.00
53916;BME280;39827;49.652;18.770;2022-12-11T10:00:56;95076.38;;;-0.59;100.00
53916;BME280;39827;49.652;18.770;2022-12-11T10:03:39;95083.94;;;-0.70;100.00
53916;BME280;39827;49.652;18.770;2022-12-11T10:09:02;95087.34;;;-0.57;100.00
53916;BME280;39827;49.652;18.770;2022-12-11T10:14:21;95080.91;;;-0.55;100.00
53916;BME280;39827;49.652;18.770;2022-12-11T10:16:57;95089.78;;;-0.74;100.00
53916;BME280;39827;49.652;18.770;2022-12-11T10:19:27;95081.19;;;-0.75;100.00
53916;BME280;39827;49.652;18.770;2022-12-11T10:21:53;95096.84;;;-1.12;100.00
53916;BME280;39827;49.652;18.770;2022-12-11T10:24:30;95100.66;;;-1.34;100.00
53916;BME280;39827;49.652;18.770;2022-12-11T10:26:58;95094.75;;;-1.41;100.00
53916;BME280;39827;49.652;18.770;2022-12-11T10:29:33;95091.41;;;-1.48;100.00
53916;BME280;39827;49.652;18.770;2022-12-11T10:31:58;95089.69;;;-1.54;100.00
53916;BME280;39827;49.652;18.770;2022-12-11T10:34:38;95088.38;;;-1.64;100.00
53916;BME280;39827;49.652;18.770;2022-12-11T10:37:06;95082.13;;;-1.56;100.00
53916;BME280;39827;49.652;18.770;2022-12-11T10:39:32;95092.38;;;-1.61;100.00
53916;BME280;39827;49.652;18.770;2022-12-11T10:41:57;95082.25;;;-1.51;100.00
53916;BME280;39827;49.652;18.770;2022-12-11T10:44:25;95074.19;;;-1.61;100.00
53916;BME280;39827;49.652;18.770;2022-12-11T10:47:06;95094.06;;;-1.74;100.00
53916;BME280;39827;49.652;18.770;2022-12-11T10:49:34;95095.41;;;-1.90;100.00
53916;BME280;39827;49.652;18.770;2022-12-11T10:52:00;95084.03;;;-1.70;100.00
53916;BME280;39827;49.652;18.770;2022-12-11T10:54:30;95085.44;;;-1.93;100.00
53916;BME280;39827;49.652;18.770;2022-12-11T10:56:56;95074.19;;;-2.05;100.00
53916;BME280;39827;49.652;18.770;2022-12-11T10:59:45;95076.97;;;-2.07;100.00
53916;BME280;39827;49.652;18.770;2022-12-11T11:02:27;95073.69;;;-1.95;100.00
53916;BME280;39827;49.652;18.770;2022-12-11T11:04:54;95065.91;;;-1.95;100.00
53916;BME280;39827;49.652;18.770;2022-12-11T11:07:26;95070.31;;;-2.21;100.00
53916;BME280;39827;49.652;18.770;2022-12-11T11:17:44;95061.88;;;-2.17;100.00
53916;BME280;39827;49.652;18.770;2022-12-11T11:20:17;95075.41;;;-2.08;100.00
53916;BME280;39827;49.652;18.770;2022-12-11T11:22:46;95077.94;;;-2.01;100.00
53916;BME280;39827;49.652;18.770;2022-12-11T11:25:24;95075.75;;;-2.04;100.00
53916;BME280;39827;49.652;18.770;2022-12-11T11:27:56;95079.09;;;-1.97;100.00
53916;BME280;39827;49.652;18.770;2022-12-11T11:30:27;95066.78;;;-2.27;100.00
53916;BME280;39827;49.652;18.770;2022-12-11T11:32:57;95068.94;;;-2.24;100.00
53916;BME280;39827;49.652;18.770;2022-12-11T11:35:26;95077.72;;;-2.25;100.00
53916;BME280;39827;49.652;18.770;2022-12-11T11:38:02;95069.50;;;-2.22;100.00
53916;BME280;39827;49.652;18.770;2022-12-11T11:40:32;95061.75;;;-2.22;100.00
53916;BME280;39827;49.652;18.770;2022-12-11T11:43:19;95066.34;;;-2.24;100.00
53916;BME280;39827;49.652;18.770;2022-12-11T11:46:07;95064.06;;;-2.39;100.00
53916;BME280;39827;49.652;18.770;2022-12-11T11:53:38;95052.53;;;-2.43;100.00
53916;BME280;39827;49.652;18.770;2022-12-11T11:56:26;95052.75;;;-2.45;100.00
53916;BME280;39827;49.652;18.770;2022-12-11T11:59:00;95046.97;;;-2.47;100.00
53916;BME280;39827;49.652;18.770;2022-12-11T12:01:27;95046.50;;;-2.37;100.00
53916;BME280;39827;49.652;18.770;2022-12-11T12:03:54;95043.69;;;-2.36;100.00
53916;BME280;39827;49.652;18.770;2022-12-11T12:09:22;95047.50;;;-2.13;100.00
53916;BME280;39827;49.652;18.770;2022-12-11T12:14:28;95056.84;;;-2.05;100.00
53916;BME280;39827;49.652;18.770;2022-12-11T12:17:05;95064.88;;;-2.13;100.00
53916;BME280;39827;49.652;18.770;2022-12-11T12:28:20;95056.34;;;-2.20;100.00
53916;BME280;39827;49.652;18.770;2022-12-11T12:31:15;95059.16;;;-2.22;100.00
53916;BME280;39827;49.652;18.770;2022-12-11T12:44:36;95061.88;;;-2.17;100.00
53916;BME280;39827;49.652;18.770;2022-12-11T12:47:10;95073.75;;;-2.28;100.00
53916;BME280;39827;49.652;18.770;2022-12-11T12:52:10;95065.44;;;-2.37;100.00
53916;BME280;39827;49.652;18.770;2022-12-11T12:54:38;95069.50;;;-2.22;100.00
53916;BME280;39827;49.652;18.770;2022-12-11T12:57:05;95061.44;;;-2.32;100.00
53916;BME280;39827;49.652;18.770;2022-12-11T12:59:31;95064.22;;;-2.34;100.00
53916;BME280;39827;49.652;18.770;2022-12-11T13:01:59;95074.09;;;-2.50;100.00
53916;BME280;39827;49.652;18.770;2022-12-11T13:04:41;95071.78;;;-2.65;100.00
53916;BME280;39827;49.652;18.770;2022-12-11T13:07:14;95080.75;;;-2.60;100.00
53916;BME280;39827;49.652;18.770;2022-12-11T13:09:41;95081.09;;;-2.50;100.00
53916;BME280;39827;49.652;18.770;2022-12-11T13:12:14;95077.66;;;-2.44;100.00
53916;BME280;39827;49.652;18.770;2022-12-11T13:14:40;95082.66;;;-2.49;100.00
53916;BME280;39827;49.652;18.770;2022-12-11T13:19:48;95097.59;;;-2.44;100.00
53916;BME280;39827;49.652;18.770;2022-12-11T13:24:57;95092.78;;;-2.41;100.00
53916;BME280;39827;49.652;18.770;2022-12-11T13:27:37;95097.75;;;-2.71;100.00
53916;BME280;39827;49.652;18.770;2022-12-11T13:30:23;95107.72;;;-2.75;100.00
53916;BME280;39827;49.652;18.770;2022-12-11T13:33:02;95109.56;;;-2.82;100.00
53916;BME280;39827;49.652;18.770;2022-12-11T13:35:30;95107.41;;;-2.85;100.00
53916;BME280;39827;49.652;18.770;2022-12-11T13:38:02;95110.91;;;-2.73;100.00
53916;BME280;39827;49.652;18.770;2022-12-11T13:40:35;95110.44;;;-2.63;100.00
53916;BME280;39827;49.652;18.770;2022-12-11T13:43:05;95124.25;;;-2.69;100.00
53916;BME280;39827;49.652;18.770;2022-12-11T13:48:00;95119.69;;;-2.74;100.00
53916;BME280;39827;49.652;18.770;2022-12-11T13:50:31;95122.72;;;-2.91;100.00
53916;BME280;39827;49.652;18.770;2022-12-11T13:52:59;95128.34;;;-2.94;100.00